Time;durP1;ratioP1;P1;durP2;ratioP2;P2;SDS_P1;SDS_P2;PMS_P1;PMS_P2;Temp;Humidity;BMP_temperature;BMP_pressure;BME280_temperature;BME280_humidity;BME280_pressure;Samples;Min_cycle;Max_cycle;Signal;HPM_P1;HPM_P2
2022/11/14 00:00:47;;;;;;;1.63;1.13;;;19.80;52.60;;;;;;5086295;28;19923;-54
2022/11/14 00:03:33;;;;;;;0.70;0.70;;;19.70;52.70;;;;;;5068348;28;20044;-56
2022/11/14 00:06:18;;;;;;;0.95;0.95;;;19.70;52.60;;;;;;5068174;28;20044;-54
2022/11/14 00:09:04;;;;;;;0.98;0.75;;;19.70;52.50;;;;;;5068514;28;20140;-55
2022/11/14 00:11:49;;;;;;;1.73;1.63;;;19.80;52.50;;;;;;5081235;28;20044;-57
2022/11/14 00:14:37;;;;;;;0.70;0.70;;;19.80;52.40;;;;;;5088787;28;20512;-56
2022/11/14 00:17:23;;;;;;;1.17;1.10;;;19.70;52.30;;;;;;5088648;28;20130;-57
2022/11/14 00:20:11;;;;;;;1.08;0.95;;;19.70;52.30;;;;;;5088363;28;20091;-57
2022/11/14 00:22:57;;;;;;;1.33;1.23;;;19.80;52.30;;;;;;5088782;28;20083;-58
2022/11/14 00:25:43;;;;;;;0.83;0.60;;;19.70;52.20;;;;;;5088682;28;20036;-58
2022/11/14 00:28:28;;;;;;;1.13;1.13;;;19.70;52.20;;;;;;5088502;28;20416;-54
2022/11/14 00:31:15;;;;;;;0.95;0.88;;;19.70;52.10;;;;;;5088422;28;20063;-55
2022/11/14 00:34:01;;;;;;;0.88;0.80;;;19.70;52.10;;;;;;5087989;28;20044;-54
2022/11/14 00:36:46;;;;;;;1.73;1.52;;;19.70;52.10;;;;;;5088255;28;20609;-55
2022/11/14 00:39:32;;;;;;;0.90;0.85;;;19.70;52.00;;;;;;5088427;28;20044;-54
2022/11/14 00:42:17;;;;;;;1.60;1.05;;;19.70;52.00;;;;;;5087778;28;20139;-52
2022/11/14 00:45:04;;;;;;;1.50;1.20;;;19.70;52.00;;;;;;5088428;28;20105;-52
2022/11/14 00:47:51;;;;;;;2.25;1.85;;;19.70;51.90;;;;;;5087458;28;20044;-54
2022/11/14 00:50:37;;;;;;;1.83;1.38;;;19.70;51.90;;;;;;5070241;28;20036;-54
2022/11/14 00:53:22;;;;;;;1.42;1.33;;;19.70;51.80;;;;;;5067722;28;20055;-53
2022/11/14 00:56:08;;;;;;;1.95;1.58;;;19.70;51.80;;;;;;5067947;28;20480;-54
2022/11/14 00:58:54;;;;;;;2.63;1.08;;;19.70;52.50;;;;;;5067689;28;20052;-56
2022/11/14 01:01:39;;;;;;;0.93;0.93;;;19.70;51.70;;;;;;5067898;28;20037;-56
2022/11/14 01:04:26;;;;;;;1.63;1.52;;;19.70;51.70;;;;;;5067274;28;20044;-49
2022/11/14 01:07:12;;;;;;;1.33;1.23;;;19.70;51.70;;;;;;5067733;28;20123;-52
2022/11/14 01:09:57;;;;;;;1.38;1.35;;;19.70;51.70;;;;;;5067868;28;20048;-54
2022/11/14 01:12:43;;;;;;;2.08;1.90;;;19.70;51.60;;;;;;5067432;28;20041;-57
2022/11/14 01:15:28;;;;;;;2.05;1.50;;;19.70;51.60;;;;;;5091408;28;20512;-54
2022/11/14 01:18:16;;;;;;;2.00;1.75;;;19.70;52.20;;;;;;5087466;28;20424;-56
2022/11/14 01:21:04;;;;;;;2.08;1.90;;;19.70;51.60;;;;;;5088169;28;20044;-54
2022/11/14 01:23:50;;;;;;;2.13;2.03;;;19.70;51.50;;;;;;5087611;28;20040;-55
2022/11/14 01:26:35;;;;;;;2.22;2.03;;;19.60;51.40;;;;;;5069409;28;20044;-55
2022/11/14 01:29:21;;;;;;;1.80;1.70;;;19.70;51.50;;;;;;5087507;28;20040;-55
2022/11/14 01:32:06;;;;;;;2.08;1.88;;;19.60;51.40;;;;;;5087651;28;20044;-52
2022/11/14 01:34:52;;;;;;;1.73;1.60;;;19.70;51.50;;;;;;5087575;28;20044;-50
2022/11/14 01:37:39;;;;;;;3.17;2.75;;;19.60;51.40;;;;;;5087297;28;20040;-56
2022/11/14 01:40:25;;;;;;;3.45;1.80;;;19.60;51.40;;;;;;5069337;28;20044;-55
2022/11/14 01:43:28;;;;;;;3.00;2.67;;;19.60;51.40;;;;;;5087428;28;20123;-56
2022/11/14 01:46:17;;;;;;;2.33;2.13;;;19.60;51.30;;;;;;5087403;28;20557;-54
2022/11/14 01:49:05;;;;;;;2.80;2.45;;;19.60;51.40;;;;;;5087010;28;20044;-55
2022/11/14 01:51:56;;;;;;;2.88;2.60;;;19.60;51.40;;;;;;5086781;28;20119;-52
2022/11/14 01:54:46;;;;;;;3.88;2.90;;;19.60;51.40;;;;;;5069435;28;20048;-54
2022/11/14 01:57:37;;;;;;;3.63;3.33;;;19.60;51.30;;;;;;5087524;28;20048;-51
2022/11/14 02:00:23;;;;;;;2.42;2.30;;;19.60;51.30;;;;;;5091061;28;20044;-55
2022/11/14 02:03:10;;;;;;;2.45;2.25;;;19.60;51.30;;;;;;5090752;28;20044;-55
2022/11/14 02:05:56;;;;;;;3.22;2.28;;;19.60;51.30;;;;;;5091195;28;20040;-55
2022/11/14 02:08:42;;;;;;;2.83;2.55;;;19.60;51.30;;;;;;5090996;28;20091;-55
2022/11/14 02:11:31;;;;;;;;;;;19.60;51.30;;;;;;5091261;28;20036;-52
2022/11/14 02:14:16;;;;;;;2.47;2.25;;;19.50;51.30;;;;;;5091009;28;19920;-55
2022/11/14 02:17:03;;;;;;;2.08;1.95;;;19.50;51.40;;;;;;5090518;28;20051;-54
2022/11/14 02:19:51;;;;;;;2.47;2.28;;;19.50;51.30;;;;;;5090767;28;20044;-53
2022/11/14 02:22:40;;;;;;;3.22;2.80;;;19.50;51.30;;;;;;5090882;28;20036;-52
2022/11/14 02:25:26;;;;;;;2.50;2.17;;;19.50;51.20;;;;;;5084724;28;20029;-51
2022/11/14 02:28:11;;;;;;;2.15;1.50;;;19.50;51.20;;;;;;5070652;28;20516;-54
2022/11/14 02:30:57;;;;;;;2.60;1.63;;;19.50;51.20;;;;;;5070001;28;20040;-56
2022/11/14 02:33:43;;;;;;;1.38;1.27;;;19.50;51.20;;;;;;5070293;28;20044;-53
2022/11/14 02:36:29;;;;;;;1.95;1.85;;;19.50;51.20;;;;;;5070480;28;20036;-54
2022/11/14 02:39:16;;;;;;;1.67;1.48;;;19.50;51.10;;;;;;5070213;28;20059;-55
2022/11/14 02:42:01;;;;;;;2.22;1.55;;;19.50;51.10;;;;;;5070273;28;20074;-56
2022/11/14 02:44:47;;;;;;;2.42;2.22;;;19.40;51.00;;;;;;5076634;28;20048;-55
2022/11/14 02:47:32;;;;;;;1.80;1.70;;;19.50;51.10;;;;;;5091250;28;20051;-55
2022/11/14 02:50:18;;;;;;;1.25;1.13;;;19.40;51.00;;;;;;5090488;28;20051;-55
2022/11/14 02:53:04;;;;;;;0.90;0.90;;;19.50;51.10;;;;;;5090276;28;20100;-54
2022/11/14 02:55:51;;;;;;;0.98;0.98;;;19.50;51.10;;;;;;5090397;28;20401;-53
2022/11/14 02:58:36;;;;;;;1.77;1.67;;;19.40;51.00;;;;;;5089992;28;20044;-53
2022/11/14 03:01:22;;;;;;;2.15;1.35;;;19.50;51.10;;;;;;5089782;28;20032;-55
2022/11/14 03:04:08;;;;;;;2.60;1.80;;;19.40;51.10;;;;;;5091217;28;20040;-54
2022/11/14 03:06:53;;;;;;;2.00;1.83;;;19.40;51.10;;;;;;5070015;28;20563;-56
2022/11/14 03:09:39;;;;;;;2.97;1.48;;;19.40;51.10;;;;;;5069325;28;20724;-54
2022/11/14 03:12:26;;;;;;;2.08;1.90;;;19.40;51.10;;;;;;5087690;28;20044;-54
2022/11/14 03:15:11;;;;;;;2.28;1.67;;;19.40;51.10;;;;;;5083357;28;20044;-54
2022/11/14 03:17:57;;;;;;;1.23;1.13;;;19.40;51.10;;;;;;5089723;28;20044;-53
2022/11/14 03:20:42;;;;;;;2.20;1.42;;;19.40;51.10;;;;;;5089676;28;20052;-53
2022/11/14 03:23:28;;;;;;;1.17;1.05;;;19.40;51.10;;;;;;5089657;28;20040;-53
2022/11/14 03:26:15;;;;;;;1.58;1.48;;;19.40;51.70;;;;;;5089750;28;20128;-54
2022/11/14 03:29:02;;;;;;;1.58;1.30;;;19.40;51.10;;;;;;5089154;28;20039;-56
2022/11/14 03:31:47;;;;;;;;;;;19.40;51.10;;;;;;5089842;28;20374;-54
2022/11/14 03:34:33;;;;;;;2.58;0.90;;;19.30;51.10;;;;;;5089342;28;20015;-55
2022/11/14 03:37:18;;;;;;;2.30;1.10;;;19.30;51.20;;;;;;5089329;28;20035;-55
2022/11/14 03:40:05;;;;;;;1.30;1.20;;;19.30;51.10;;;;;;5089184;28;20774;-53
2022/11/14 03:42:50;;;;;;;1.13;1.13;;;19.30;51.10;;;;;;5088771;28;20516;-57
2022/11/14 03:45:38;;;;;;;2.15;1.33;;;19.30;51.10;;;;;;5087021;28;20075;-54
2022/11/14 03:48:24;;;;;;;1.67;1.40;;;19.30;51.00;;;;;;5089196;28;20055;-56
2022/11/14 03:51:09;;;;;;;1.02;1.02;;;19.30;51.00;;;;;;5089068;28;20052;-55
2022/11/14 03:53:54;;;;;;;1.48;0.60;;;19.30;51.00;;;;;;5088990;28;20042;-54
2022/11/14 03:56:40;;;;;;;0.73;0.73;;;19.30;51.00;;;;;;5089120;28;20044;-52
2022/11/14 03:59:26;;;;;;;0.85;0.82;;;19.20;50.90;;;;;;5088638;28;20127;-55
2022/11/14 04:02:13;;;;;;;1.50;1.40;;;19.30;51.00;;;;;;5088524;28;20539;-57
2022/11/14 04:04:58;;;;;;;1.15;1.05;;;19.30;51.00;;;;;;5088562;28;20044;-55
2022/11/14 04:07:44;;;;;;;0.52;0.52;;;19.20;50.90;;;;;;5088857;28;20043;-55
2022/11/14 04:10:29;;;;;;;0.93;0.45;;;19.20;51.00;;;;;;5088601;28;20421;-55
2022/11/14 04:13:15;;;;;;;1.13;0.70;;;19.30;50.90;;;;;;5088502;28;20385;-56
2022/11/14 04:16:01;;;;;;;0.80;0.80;;;19.30;50.90;;;;;;5088613;28;20044;-53
2022/11/14 04:18:48;;;;;;;0.75;0.75;;;19.20;50.90;;;;;;5088403;28;20600;-53
2022/11/14 04:21:33;;;;;;;1.58;0.77;;;19.20;50.80;;;;;;5087557;28;20044;-56
2022/11/14 04:24:19;;;;;;;0.90;0.90;;;19.20;50.90;;;;;;5088543;28;20135;-55
2022/11/14 04:27:04;;;;;;;0.40;0.40;;;19.20;50.90;;;;;;5088246;28;20501;-56
2022/11/14 04:29:49;;;;;;;0.63;0.35;;;19.20;50.90;;;;;;5088332;28;20036;-56
2022/11/14 04:32:35;;;;;;;0.70;0.50;;;19.20;50.90;;;;;;5088161;28;20044;-55
2022/11/14 04:35:22;;;;;;;0.82;0.82;;;19.30;50.90;;;;;;5088300;28;20739;-55
2022/11/14 04:38:07;;;;;;;1.52;0.90;;;19.30;50.90;;;;;;5088174;28;20500;-52
2022/11/14 04:40:53;;;;;;;0.80;0.80;;;19.20;50.90;;;;;;5088011;28;20067;-53
2022/11/14 04:43:39;;;;;;;0.73;0.55;;;19.20;50.80;;;;;;5088269;28;20056;-54
2022/11/14 04:46:24;;;;;;;0.82;0.80;;;19.20;50.90;;;;;;5088566;28;20054;-55
2022/11/14 04:49:10;;;;;;;1.67;1.33;;;19.20;50.80;;;;;;5088394;28;20048;-56
2022/11/14 04:51:57;;;;;;;0.65;0.65;;;19.20;50.80;;;;;;5084270;28;20033;-55
2022/11/14 04:54:42;;;;;;;0.40;0.40;;;19.20;50.80;;;;;;5067953;28;20055;-52
2022/11/14 04:57:28;;;;;;;0.55;0.55;;;19.20;50.80;;;;;;5067554;28;20090;-54
2022/11/14 05:00:15;;;;;;;0.50;0.50;;;19.20;50.80;;;;;;5067753;28;20041;-54
2022/11/14 05:03:01;;;;;;;0.63;0.40;;;19.20;50.80;;;;;;5067787;28;20067;-57
2022/11/14 05:05:46;;;;;;;2.03;1.20;;;19.20;50.80;;;;;;5067872;28;20041;-56
2022/11/14 05:08:34;;;;;;;1.25;1.25;;;19.20;50.70;;;;;;5068095;28;20052;-56
2022/11/14 05:11:20;;;;;;;0.68;0.50;;;19.20;50.80;;;;;;5076163;28;20108;-56
2022/11/14 05:14:06;;;;;;;2.83;0.85;;;19.20;50.80;;;;;;5088191;28;20040;-56
2022/11/14 05:16:52;;;;;;;0.93;0.60;;;19.20;50.80;;;;;;5104390;28;20048;-56
2022/11/14 05:19:37;;;;;;;1.98;1.77;;;19.10;50.70;;;;;;5108055;28;20043;-54
2022/11/14 05:22:23;;;;;;;0.63;0.52;;;19.20;50.80;;;;;;5107968;28;20586;-55
2022/11/14 05:25:11;;;;;;;2.00;1.10;;;19.10;50.70;;;;;;5107676;28;20113;-53
2022/11/14 05:27:56;;;;;;;0.40;0.28;;;19.10;50.70;;;;;;5108162;28;20036;-53
2022/11/14 05:30:41;;;;;;;3.13;0.65;;;19.10;50.70;;;;;;5108146;28;20035;-56
2022/11/14 05:33:27;;;;;;;0.40;0.40;;;19.10;50.70;;;;;;5109404;28;20047;-55
2022/11/14 05:36:15;;;;;;;0.30;0.30;;;19.10;50.70;;;;;;5112217;28;20043;-52
2022/11/14 05:39:00;;;;;;;1.75;0.50;;;19.10;50.70;;;;;;5111643;28;20039;-53
2022/11/14 05:41:47;;;;;;;1.00;0.50;;;19.10;50.70;;;;;;5073111;28;20040;-56
2022/11/14 05:44:33;;;;;;;0.50;0.50;;;19.10;50.70;;;;;;5074825;28;20047;-56
2022/11/14 05:47:19;;;;;;;0.55;0.30;;;19.10;50.80;;;;;;5071175;28;20041;-53
2022/11/14 05:50:05;;;;;;;0.30;0.30;;;19.10;50.80;;;;;;5070926;28;20048;-55
2022/11/14 05:52:50;;;;;;;0.57;0.57;;;19.10;50.80;;;;;;5068411;28;20106;-53
2022/11/14 05:55:36;;;;;;;0.32;0.32;;;19.10;50.80;;;;;;5091052;28;20456;-53
2022/11/14 05:58:23;;;;;;;0.70;0.70;;;19.10;50.80;;;;;;5091170;28;20052;-53
2022/11/14 06:01:10;;;;;;;0.28;0.20;;;19.10;50.80;;;;;;5091327;28;20032;-55
2022/11/14 06:03:56;;;;;;;0.73;0.38;;;19.10;50.80;;;;;;5090499;28;20040;-54
2022/11/14 06:06:42;;;;;;;0.55;0.55;;;19.10;50.80;;;;;;5091196;28;20071;-53
2022/11/14 06:09:27;;;;;;;0.60;0.40;;;19.10;50.80;;;;;;5090775;28;20047;-56
2022/11/14 06:12:13;;;;;;;0.65;0.20;;;19.10;50.80;;;;;;5090613;28;20101;-55
2022/11/14 06:15:00;;;;;;;0.85;0.25;;;19.10;50.80;;;;;;5072595;28;20386;-52
2022/11/14 06:17:45;;;;;;;0.73;0.73;;;19.10;50.80;;;;;;5090913;28;20166;-50
2022/11/14 06:20:31;;;;;;;0.65;0.65;;;19.10;50.80;;;;;;5090747;28;20075;-56
2022/11/14 06:23:16;;;;;;;1.23;0.88;;;19.10;50.80;;;;;;5090435;28;20043;-54
2022/11/14 06:26:04;;;;;;;0.50;0.40;;;19.10;50.80;;;;;;5090963;28;20040;-51
2022/11/14 06:28:52;;;;;;;0.75;0.50;;;19.10;50.80;;;;;;5090347;28;20043;-54
2022/11/14 06:31:39;;;;;;;0.60;0.60;;;19.10;50.80;;;;;;5090688;28;20091;-54
2022/11/14 06:34:24;;;;;;;1.33;0.60;;;19.10;50.80;;;;;;5090460;28;20428;-54
2022/11/14 06:37:10;;;;;;;0.55;0.50;;;19.10;50.70;;;;;;5090418;28;20036;-55
2022/11/14 06:39:55;;;;;;;0.50;0.40;;;19.10;50.70;;;;;;5090328;28;20048;-55
2022/11/14 06:42:41;;;;;;;0.60;0.40;;;19.10;50.80;;;;;;5090396;28;20056;-56
2022/11/14 06:45:27;;;;;;;1.38;0.40;;;19.10;50.80;;;;;;5089511;28;20070;-53
2022/11/14 06:48:13;;;;;;;2.05;1.00;;;19.10;50.80;;;;;;5090304;28;20044;-55
2022/11/14 06:51:00;;;;;;;0.70;0.70;;;19.10;50.80;;;;;;5090271;28;20082;-54
2022/11/14 06:53:46;;;;;;;0.65;0.65;;;19.00;50.70;;;;;;5090387;28;20040;-53
2022/11/14 06:56:31;;;;;;;1.27;0.60;;;19.10;50.80;;;;;;5090426;28;20040;-54
2022/11/14 06:59:17;;;;;;;0.43;0.43;;;19.00;50.70;;;;;;5090129;28;20044;-55
2022/11/14 07:02:03;;;;;;;2.58;0.65;;;19.00;50.80;;;;;;5090118;28;20040;-52
2022/11/14 07:04:50;;;;;;;1.00;0.88;;;19.00;50.70;;;;;;5090252;28;20044;-50
2022/11/14 07:07:35;;;;;;;0.40;0.32;;;19.00;50.80;;;;;;5089671;28;20123;-54
2022/11/14 07:10:21;;;;;;;1.00;0.55;;;19.00;50.80;;;;;;5090097;28;20048;-53
2022/11/14 07:13:08;;;;;;;1.15;0.30;;;19.00;50.80;;;;;;5089758;28;20040;-54
2022/11/14 07:15:54;;;;;;;1.13;0.60;;;19.00;50.80;;;;;;5089662;28;20054;-54
2022/11/14 07:18:40;;;;;;;1.08;0.70;;;19.00;50.90;;;;;;5089772;28;20419;-53
2022/11/14 07:21:28;;;;;;;0.30;0.15;;;19.00;50.90;;;;;;5089542;28;20492;-55
2022/11/14 07:24:14;;;;;;;0.70;0.70;;;19.00;50.90;;;;;;5090764;28;20585;-53
2022/11/14 07:27:00;;;;;;;0.50;0.47;;;19.00;50.90;;;;;;5089766;28;20116;-53
2022/11/14 07:29:46;;;;;;;0.47;0.47;;;19.00;50.90;;;;;;5089808;28;20036;-56
2022/11/14 07:32:32;;;;;;;0.55;0.55;;;19.00;50.90;;;;;;5089754;28;20039;-55
2022/11/14 07:35:17;;;;;;;2.15;0.60;;;19.00;50.90;;;;;;5089123;28;20482;-55
2022/11/14 07:38:04;;;;;;;0.38;0.30;;;19.00;50.90;;;;;;5089298;28;20040;-54
2022/11/14 07:40:54;;;;;;;0.55;0.38;;;19.00;50.90;;;;;;5089033;28;20044;-54
2022/11/14 07:43:40;;;;;;;0.82;0.50;;;19.00;51.50;;;;;;5089154;28;20048;-54
2022/11/14 07:46:25;;;;;;;1.10;0.77;;;18.90;50.80;;;;;;5089547;28;20040;-54
2022/11/14 07:49:11;;;;;;;1.00;0.70;;;18.90;50.80;;;;;;5089398;28;20048;-52
2022/11/14 07:51:56;;;;;;;2.95;0.38;;;19.00;50.90;;;;;;5088786;28;20536;-54
2022/11/14 07:54:43;;;;;;;0.98;0.45;;;18.90;50.80;;;;;;5089229;28;20048;-54
2022/11/14 07:57:28;;;;;;;;;;;18.90;50.70;;;;;;5089372;28;20082;-52
2022/11/14 08:00:15;;;;;;;0.70;0.60;;;18.90;50.70;;;;;;5089172;28;20429;-55
2022/11/14 08:03:01;;;;;;;1.30;0.90;;;18.90;50.90;;;;;;5088926;28;20162;-51
2022/11/14 08:05:47;;;;;;;0.68;0.50;;;18.90;50.90;;;;;;5088482;28;20408;-54
2022/11/14 08:08:32;;;;;;;0.50;0.50;;;18.90;50.80;;;;;;5088911;28;20135;-52
2022/11/14 08:11:46;;;;;;;1.85;0.95;;;18.90;50.80;;;;;;5088927;28;20040;-50
2022/11/14 08:14:25;;;;;;;1.08;0.73;;;18.90;50.70;;;;;;5088821;28;20390;-51
2022/11/14 08:17:10;;;;;;;0.50;0.40;;;18.90;50.70;;;;;;5088701;28;20705;-53
2022/11/14 08:19:56;;;;;;;0.38;0.38;;;18.90;50.70;;;;;;5088259;28;20213;-51
2022/11/14 08:22:41;;;;;;;0.85;0.30;;;18.90;50.60;;;;;;5088638;28;20629;-55
2022/11/14 08:25:27;;;;;;;1.17;0.57;;;18.90;50.60;;;;;;5088827;28;20048;-54
2022/11/14 08:28:13;;;;;;;0.70;0.52;;;18.90;50.60;;;;;;5088503;28;20515;-55
2022/11/14 08:31:00;;;;;;;0.50;0.38;;;18.90;50.50;;;;;;5088827;28;20052;-53
2022/11/14 08:33:46;;;;;;;;;;;18.90;50.50;;;;;;5088685;28;20040;-55
2022/11/14 08:36:31;;;;;;;0.55;0.30;;;18.80;50.50;;;;;;5088699;28;19920;-52
2022/11/14 08:39:16;;;;;;;0.77;0.40;;;18.80;50.70;;;;;;5088251;28;20153;-53
2022/11/14 08:42:02;;;;;;;0.70;0.30;;;18.80;50.70;;;;;;5088519;28;20044;-55
2022/11/14 08:44:49;;;;;;;0.50;0.30;;;18.80;50.60;;;;;;5088593;28;20416;-55
2022/11/14 08:47:35;;;;;;;0.43;0.30;;;18.80;50.70;;;;;;5088035;28;20044;-55
2022/11/14 08:50:20;;;;;;;0.77;0.60;;;18.80;50.70;;;;;;5088329;28;20500;-55
2022/11/14 08:53:05;;;;;;;0.95;0.60;;;18.80;50.70;;;;;;5088129;28;20052;-54
2022/11/14 08:55:51;;;;;;;3.28;0.50;;;18.80;50.60;;;;;;5088404;28;20047;-55
2022/11/14 08:58:36;;;;;;;0.50;0.40;;;18.80;51.20;;;;;;5088202;28;20044;-55
2022/11/14 09:01:23;;;;;;;1.95;0.30;;;18.80;50.60;;;;;;5088710;28;20135;-56
2022/11/14 09:04:08;;;;;;;;;;;18.80;50.60;;;;;;5088492;28;20091;-55
2022/11/14 09:06:54;;;;;;;1.13;0.40;;;18.80;50.60;;;;;;5088421;28;20027;-56
2022/11/14 09:09:39;;;;;;;0.82;0.30;;;18.80;50.70;;;;;;5088100;28;20461;-53
2022/11/14 09:12:25;;;;;;;0.20;0.20;;;18.80;50.70;;;;;;5087917;28;20074;-56
2022/11/14 09:15:10;;;;;;;0.20;0.20;;;18.80;50.60;;;;;;5088094;28;20050;-53
2022/11/14 09:17:58;;;;;;;1.05;0.50;;;18.80;50.60;;;;;;5087640;28;20123;-55
2022/11/14 09:20:43;;;;;;;0.50;0.20;;;18.80;50.60;;;;;;5087902;28;20044;-55
2022/11/14 09:23:29;;;;;;;0.47;0.47;;;18.80;50.60;;;;;;5087955;28;20066;-53
2022/11/14 09:26:15;;;;;;;0.73;0.20;;;18.80;50.60;;;;;;5088095;28;20044;-54
2022/11/14 09:29:04;;;;;;;0.22;0.20;;;18.80;50.50;;;;;;5088803;28;20496;-54
2022/11/14 09:31:51;;;;;;;1.30;0.57;;;18.80;50.60;;;;;;5107911;28;20724;-57
2022/11/14 09:34:41;;;;;;;0.50;0.50;;;18.90;50.60;;;;;;5108233;28;20389;-52
2022/11/14 09:37:27;;;;;;;0.75;0.30;;;18.90;50.50;;;;;;5093170;28;20866;-54
2022/11/14 09:40:13;;;;;;;1.05;0.20;;;18.90;50.50;;;;;;5087770;28;20040;-56
2022/11/14 09:43:22;;;;;;;0.60;0.30;;;18.90;50.50;;;;;;5087763;28;20052;-53
2022/11/14 09:46:19;;;;;;;0.68;0.68;;;18.90;50.40;;;;;;5084368;28;20044;-53
2022/11/14 09:49:11;;;;;;;3.85;0.57;;;18.90;50.40;;;;;;5088017;28;20117;-54
2022/11/14 09:52:03;;;;;;;0.60;0.32;;;18.90;50.50;;;;;;5087617;28;20043;-54
2022/11/14 09:54:54;;;;;;;0.55;0.25;;;18.90;50.40;;;;;;5087674;28;20150;-54
2022/11/14 09:57:42;;;;;;;2.90;0.47;;;18.90;50.40;;;;;;5087930;28;20063;-55
2022/11/14 10:00:35;;;;;;;1.77;0.28;;;18.90;50.40;;;;;;5087342;28;20522;-56
2022/11/14 10:03:31;;;;;;;0.93;0.38;;;18.90;50.90;;;;;;5069498;28;20044;-55
2022/11/14 10:06:24;;;;;;;0.82;0.50;;;18.90;50.30;;;;;;5087681;28;20044;-54
2022/11/14 10:09:30;;;;;;;0.82;0.28;;;18.90;50.30;;;;;;5087756;28;20044;-55
2022/11/14 10:12:22;;;;;;;4.83;0.40;;;19.00;50.30;;;;;;5087857;28;20044;-57
2022/11/14 10:15:16;;;;;;;1.23;0.47;;;19.00;50.40;;;;;;5087470;28;20314;-56
2022/11/14 10:18:29;;;;;;;1.30;0.40;;;19.00;50.40;;;;;;5087883;28;20131;-57
2022/11/14 10:21:30;;;;;;;0.63;0.40;;;19.00;50.20;;;;;;5090481;28;20841;-54
2022/11/14 10:24:36;;;;;;;1.15;0.60;;;19.00;50.30;;;;;;5091429;28;20405;-55
2022/11/14 10:27:27;;;;;;;0.95;0.50;;;19.00;50.20;;;;;;5091187;28;20068;-56
2022/11/14 10:30:15;;;;;;;0.85;0.70;;;19.00;50.20;;;;;;5090928;28;20040;-54
2022/11/14 10:33:19;;;;;;;1.65;1.02;;;19.00;50.10;;;;;;5080784;28;20036;-53
2022/11/14 10:36:13;;;;;;;3.13;1.52;;;19.10;50.10;;;;;;5070724;28;20040;-60
2022/11/14 10:39:04;;;;;;;0.80;0.80;;;19.10;50.10;;;;;;5070894;28;20170;-54
2022/11/14 10:41:56;;;;;;;1.48;0.40;;;19.10;50.10;;;;;;5070476;28;20512;-54
2022/11/14 10:44:49;;;;;;;1.50;0.80;;;19.10;50.00;;;;;;5075077;28;20040;-53
2022/11/14 10:47:40;;;;;;;0.80;0.35;;;19.10;50.00;;;;;;5090748;28;20074;-57
2022/11/14 10:50:41;;;;;;;2.00;1.27;;;19.10;49.90;;;;;;5090695;28;20040;-54
2022/11/14 10:53:38;;;;;;;0.50;0.50;;;19.20;49.90;;;;;;5090472;28;20043;-54
2022/11/14 10:56:23;;;;;;;2.03;0.80;;;19.20;49.90;;;;;;5090327;28;20512;-54
2022/11/14 10:59:10;;;;;;;0.80;0.80;;;19.20;49.80;;;;;;5089829;28;20036;-56
2022/11/14 11:01:58;;;;;;;1.85;0.90;;;19.20;49.80;;;;;;5090344;28;20131;-56
2022/11/14 11:04:44;;;;;;;0.82;0.82;;;19.30;50.40;;;;;;5090225;28;20044;-57
2022/11/14 11:13:50;;;;;;;1.52;0.70;;;19.60;50.00;;;;;;5089596;28;20047;-53
2022/11/14 11:16:37;;;;;;;1.45;0.63;;;19.60;49.10;;;;;;5071461;28;20045;-53
2022/11/14 11:19:25;;;;;;;0.82;0.68;;;19.70;49.00;;;;;;5078592;28;20041;-55
2022/11/14 11:22:28;;;;;;;0.60;0.57;;;19.80;48.90;;;;;;5071938;28;20687;-53
2022/11/14 11:25:24;;;;;;;0.65;0.57;;;19.90;48.70;;;;;;5069786;28;20564;-56
2022/11/14 11:28:13;;;;;;;3.75;0.75;;;20.00;48.50;;;;;;5069378;28;20072;-57
2022/11/14 11:31:00;;;;;;;1.50;0.85;;;20.10;48.40;;;;;;5069350;28;20048;-55
2022/11/14 11:33:47;;;;;;;0.70;0.50;;;20.20;48.30;;;;;;5080124;28;20594;-56
2022/11/14 11:36:40;;;;;;;1.27;0.80;;;20.30;48.20;;;;;;5087592;28;20044;-55
2022/11/14 11:39:29;;;;;;;0.93;0.73;;;20.40;48.10;;;;;;5089607;28;20552;-52
2022/11/14 11:42:18;;;;;;;2.58;0.85;;;20.40;47.90;;;;;;5088950;28;20504;-55
2022/11/14 11:45:11;;;;;;;1.23;0.65;;;20.50;47.80;;;;;;5089306;28;20043;-55
2022/11/14 11:48:01;;;;;;;1.67;0.85;;;20.60;47.80;;;;;;5089007;28;20047;-55
2022/11/14 11:50:49;;;;;;;4.68;1.00;;;20.60;47.70;;;;;;5069185;28;20052;-54
2022/11/14 11:53:38;;;;;;;1.13;0.65;;;20.70;47.60;;;;;;5069207;28;20042;-55
2022/11/14 11:56:27;;;;;;;1.45;1.25;;;20.80;47.50;;;;;;5068632;28;20064;-55
2022/11/14 11:59:27;;;;;;;0.70;0.65;;;20.80;47.40;;;;;;5068765;28;20041;-56
2022/11/14 12:02:21;;;;;;;1.33;0.70;;;20.90;47.40;;;;;;5068631;28;20040;-56
2022/11/14 12:05:13;;;;;;;1.58;0.63;;;20.90;47.20;;;;;;5068179;28;20535;-57
2022/11/14 12:08:06;;;;;;;1.95;0.65;;;21.00;47.30;;;;;;5068717;28;20060;-56
2022/11/14 12:10:53;;;;;;;1.10;0.70;;;21.10;47.20;;;;;;5073196;28;20040;-56
2022/11/14 12:14:09;;;;;;;1.88;0.60;;;21.10;47.10;;;;;;5089056;28;20071;-53
2022/11/14 12:17:24;;;;;;;2.15;1.15;;;21.20;47.00;;;;;;5089050;28;20047;-57
2022/11/14 12:20:32;;;;;;;1.90;0.65;;;21.20;46.90;;;;;;5088568;28;20118;-56
2022/11/14 12:23:33;;;;;;;2.28;0.40;;;21.30;46.90;;;;;;5088801;28;20044;-55
2022/11/14 12:26:51;;;;;;;0.75;0.75;;;21.30;46.90;;;;;;5088222;28;20036;-56
2022/11/14 12:29:57;;;;;;;1.95;0.63;;;21.30;46.80;;;;;;5081033;28;20048;-55
2022/11/14 12:32:47;;;;;;;3.42;1.52;;;21.40;46.80;;;;;;5088315;28;20598;-55
2022/11/14 12:35:35;;;;;;;1.00;0.73;;;21.40;46.80;;;;;;5088281;28;20040;-56
2022/11/14 12:38:23;;;;;;;1.88;0.77;;;21.50;46.80;;;;;;5088088;28;20044;-53
2022/11/14 12:41:09;;;;;;;1.02;0.50;;;21.50;46.70;;;;;;5088287;28;20400;-54
2022/11/14 12:44:17;;;;;;;1.45;1.02;;;21.60;46.70;;;;;;5087431;28;20060;-55
2022/11/14 12:47:18;;;;;;;0.75;0.55;;;21.60;46.50;;;;;;5088574;28;20508;-54
2022/11/14 12:50:29;;;;;;;1.40;1.25;;;21.60;46.50;;;;;;5087991;28;20040;-55
2022/11/14 12:53:46;;;;;;;3.03;1.27;;;21.70;46.50;;;;;;5088173;28;20059;-55
2022/11/14 12:56:54;;;;;;;1.17;0.80;;;21.80;46.50;;;;;;5005831;28;20046;-54
2022/11/14 12:59:55;;;;;;;2.72;1.60;;;21.80;46.50;;;;;;5005589;28;20053;-55
2022/11/14 13:03:03;;;;;;;2.60;0.90;;;21.80;46.40;;;;;;5005427;28;20042;-56
2022/11/14 13:05:57;;;;;;;2.67;1.08;;;21.90;46.40;;;;;;5005290;28;20049;-56
2022/11/14 13:09:18;;;;;;;1.60;0.75;;;21.90;46.40;;;;;;5005303;28;20196;-54
2022/11/14 13:22:35;;;;;;;1.58;1.17;;;22.00;46.30;;;;;;4985700;28;20058;-51
2022/11/14 13:25:24;;;;;;;1.27;1.10;;;22.10;46.30;;;;;;4985884;28;20116;-55
2022/11/14 13:28:43;;;;;;;3.38;1.48;;;22.10;46.40;;;;;;4985425;28;20054;-53
2022/11/14 13:31:44;;;;;;;1.65;0.63;;;22.20;46.30;;;;;;5041216;28;20053;-52
2022/11/14 13:34:37;;;;;;;1.02;0.82;;;22.20;46.20;;;;;;5064803;28;20071;-57
2022/11/14 13:37:38;;;;;;;1.50;1.40;;;22.10;46.20;;;;;;5064567;28;20048;-55
2022/11/14 13:40:33;;;;;;;7.88;2.40;;;22.10;46.10;;;;;;5064803;28;20858;-58
2022/11/14 13:43:24;;;;;;;2.15;1.08;;;22.10;46.00;;;;;;5050012;28;20414;-55
2022/11/14 13:46:19;;;;;;;1.42;1.30;;;22.10;46.00;;;;;;5024955;28;20104;-55
2022/11/14 13:49:20;;;;;;;4.00;1.88;;;22.00;46.00;;;;;;5076231;28;20072;-55
2022/11/14 13:52:06;;;;;;;2.65;1.55;;;22.00;46.00;;;;;;5085594;28;20060;-54
2022/11/14 13:54:52;;;;;;;1.17;0.98;;;21.90;46.00;;;;;;5089463;28;20036;-55
2022/11/14 13:57:47;;;;;;;3.55;1.70;;;21.80;46.10;;;;;;5091329;28;20135;-57
2022/11/14 14:00:54;;;;;;;1.73;1.35;;;21.80;46.10;;;;;;5090879;28;20060;-57
2022/11/14 14:03:58;;;;;;;2.97;1.50;;;21.70;46.30;;;;;;5090894;28;20036;-57
2022/11/14 14:06:55;;;;;;;1.45;1.40;;;21.70;46.50;;;;;;5090934;28;20048;-55
2022/11/14 14:09:50;;;;;;;3.00;1.58;;;21.60;46.60;;;;;;5091413;28;20043;-52
2022/11/14 14:12:54;;;;;;;2.40;1.65;;;21.60;46.70;;;;;;5091155;28;20079;-57
2022/11/14 14:15:46;;;;;;;1.30;1.20;;;21.60;46.70;;;;;;5090956;28;20040;-57
2022/11/14 14:18:49;;;;;;;1.58;1.48;;;21.60;46.70;;;;;;5090780;28;20039;-56
2022/11/14 14:21:44;;;;;;;2.90;1.33;;;21.60;46.70;;;;;;5090621;28;20101;-53
2022/11/14 14:24:46;;;;;;;3.90;2.03;;;21.50;46.70;;;;;;5091294;28;20518;-54
2022/11/14 14:27:37;;;;;;;5.45;1.73;;;21.50;46.80;;;;;;5090919;28;20063;-53
2022/11/14 14:30:25;;;;;;;2.15;1.10;;;21.50;47.00;;;;;;5090702;28;20040;-55
2022/11/14 14:33:14;;;;;;;2.10;1.67;;;21.40;47.00;;;;;;5090512;28;20037;-54
2022/11/14 14:35:59;;;;;;;2.20;1.73;;;21.40;47.10;;;;;;5090380;28;20036;-57
2022/11/14 14:38:45;;;;;;;2.03;1.80;;;21.40;47.30;;;;;;5090805;28;20040;-56
2022/11/14 14:41:32;;;;;;;2.78;1.55;;;21.40;47.30;;;;;;5090623;28;20036;-55
2022/11/14 14:44:20;;;;;;;;;;;21.40;47.40;;;;;;5091161;28;20079;-57
2022/11/14 14:47:17;;;;;;;3.40;1.42;;;21.30;47.40;;;;;;5090584;28;20090;-56
2022/11/14 14:50:05;;;;;;;2.85;1.35;;;21.30;47.60;;;;;;5090068;28;20114;-57
2022/11/14 14:52:56;;;;;;;1.50;0.98;;;21.20;47.70;;;;;;5090063;28;20048;-57
2022/11/14 14:55:50;;;;;;;2.58;1.05;;;21.20;47.80;;;;;;5090246;28;20386;-57
2022/11/14 14:58:37;;;;;;;6.45;1.27;;;21.20;48.00;;;;;;5090313;28;20527;-57